createdAt,value
2022-07-29T00:01:00.895Z,31.72
2022-07-29T00:03:05.961Z,31.72
2022-07-29T00:05:10.699Z,31.71
2022-07-29T00:07:16.088Z,31.73
2022-07-29T00:09:20.684Z,31.73
2022-07-29T00:11:25.299Z,31.74
2022-07-29T00:13:34.467Z,31.75
2022-07-29T00:15:39.152Z,31.65
2022-07-29T00:17:43.945Z,31.81
2022-07-29T00:19:48.596Z,31.86
2022-07-29T00:21:53.329Z,31.86
2022-07-29T00:23:58.029Z,31.93
2022-07-29T00:26:02.774Z,31.9
2022-07-29T00:28:07.512Z,31.93
2022-07-29T00:30:12.121Z,31.9
2022-07-29T00:32:16.791Z,32.01
2022-07-29T00:34:21.468Z,32.14
2022-07-29T00:36:26.327Z,32.03
2022-07-29T00:38:31.215Z,32.08
2022-07-29T00:40:35.814Z,32.15
2022-07-29T00:42:40.969Z,32.19
2022-07-29T00:44:45.549Z,32.1
2022-07-29T00:46:50.829Z,32.11
2022-07-29T00:48:55.646Z,32.25
2022-07-29T00:51:00.386Z,32.23
2022-07-29T00:53:05.405Z,32.26
2022-07-29T00:55:10.917Z,32.23
2022-07-29T00:57:15.714Z,32.18
2022-07-29T00:59:20.611Z,32.17
2022-07-29T01:01:25.721Z,32.28
2022-07-29T01:03:30.483Z,32.35
2022-07-29T01:05:53.339Z,32.38
2022-07-29T01:07:58.209Z,32.29
2022-07-29T01:10:02.771Z,32.31
2022-07-29T01:12:10.540Z,32.43
2022-07-29T01:14:16.233Z,32.33
2022-07-29T01:16:21.301Z,32.32
2022-07-29T01:18:26.919Z,32.42
2022-07-29T01:20:33.606Z,32.55
2022-07-29T01:22:38.297Z,32.52
2022-07-29T01:24:42.857Z,32.5
2022-07-29T01:26:47.758Z,32.5
2022-07-29T01:28:53.167Z,32.44
2022-07-29T01:30:59.669Z,32.42
2022-07-29T01:33:04.779Z,32.4
2022-07-29T01:35:09.372Z,32.34
2022-07-29T01:37:14.017Z,32.37
2022-07-29T01:39:18.925Z,32.31
2022-07-29T01:41:23.458Z,32.27
2022-07-29T01:43:28.072Z,32.46
2022-07-29T01:45:32.758Z,32.53
2022-07-29T01:47:37.969Z,32.57
2022-07-29T01:49:42.659Z,32.57
2022-07-29T01:51:47.214Z,32.63
2022-07-29T01:53:51.768Z,32.64
2022-07-29T01:56:00.966Z,32.59
2022-07-29T01:58:05.842Z,32.64
2022-07-29T02:00:10.521Z,32.58
2022-07-29T02:02:15.554Z,32.67
2022-07-29T02:04:31.848Z,32.66
2022-07-29T02:06:36.510Z,32.67
2022-07-29T02:08:41.115Z,32.6
2022-07-29T02:10:45.927Z,32.68
2022-07-29T02:12:53.221Z,32.6
2022-07-29T02:14:57.738Z,32.75
2022-07-29T02:17:02.234Z,32.65
2022-07-29T02:19:06.729Z,32.79
2022-07-29T02:21:17.982Z,32.78
2022-07-29T02:23:22.593Z,32.67
2022-07-29T02:25:39.664Z,32.63
2022-07-29T02:27:44.604Z,32.71
2022-07-29T02:29:49.256Z,32.7
2022-07-29T02:31:53.861Z,32.83
2022-07-29T02:33:58.402Z,32.77
2022-07-29T02:36:02.949Z,33
2022-07-29T02:38:07.535Z,32.98
2022-07-29T02:40:12.169Z,33.12
2022-07-29T02:42:16.727Z,32.93
2022-07-29T02:44:22.184Z,32.92
2022-07-29T02:46:31.256Z,33.07
2022-07-29T02:48:35.937Z,33.04
2022-07-29T02:50:40.698Z,33.04
2022-07-29T02:52:45.267Z,32.95
2022-07-29T02:54:49.859Z,33.06
2022-07-29T02:56:54.430Z,32.99
2022-07-29T02:58:59.009Z,33.09
2022-07-29T03:01:03.560Z,32.98
2022-07-29T03:03:08.310Z,33.17
2022-07-29T03:05:13.202Z,33.29
2022-07-29T03:07:17.870Z,33.33
2022-07-29T03:09:22.436Z,33.25
2022-07-29T03:11:52.240Z,33.21
2022-07-29T03:13:56.792Z,33.33
2022-07-29T03:16:01.606Z,33.25
2022-07-29T03:18:06.298Z,33.26
2022-07-29T03:20:10.842Z,33.1
2022-07-29T03:22:15.399Z,33.35
2022-07-29T03:24:23.685Z,33.26
2022-07-29T03:26:28.229Z,33.31
2022-07-29T03:28:35.305Z,33.19
2022-07-29T03:30:45.700Z,33.44
2022-07-29T03:32:53.087Z,33.33
2022-07-29T03:34:57.873Z,33.44
2022-07-29T03:37:02.597Z,33.48
2022-07-29T03:39:07.297Z,33.47
2022-07-29T03:41:11.942Z,33.45
2022-07-29T03:43:16.558Z,33.5
2022-07-29T03:45:21.138Z,33.46
2022-07-29T03:48:00.128Z,33.57
2022-07-29T03:50:05.185Z,33.51
2022-07-29T03:52:09.820Z,33.41
2022-07-29T03:54:14.547Z,33.6
2022-07-29T03:56:19.208Z,33.58
2022-07-29T03:58:23.929Z,33.53
2022-07-29T04:00:28.617Z,33.77
2022-07-29T04:02:33.375Z,33.61
2022-07-29T04:04:37.995Z,33.74
2022-07-29T04:06:42.572Z,33.61
2022-07-29T04:08:47.237Z,33.68
2022-07-29T04:10:51.951Z,33.68
2022-07-29T04:12:56.691Z,33.74
2022-07-29T04:15:01.305Z,33.77
2022-07-29T04:17:06.026Z,33.71
2022-07-29T04:19:11.140Z,33.77
2022-07-29T04:21:16.309Z,33.91
2022-07-29T04:23:21.119Z,33.92
2022-07-29T04:25:25.681Z,33.89
2022-07-29T04:27:30.259Z,33.99
2022-07-29T04:29:34.833Z,34.13
2022-07-29T04:31:39.672Z,34.12
2022-07-29T04:33:44.415Z,34.16
2022-07-29T04:35:57.105Z,34.2
2022-07-29T04:38:01.619Z,34.16
2022-07-29T04:40:06.380Z,34.14
2022-07-29T04:42:10.977Z,34.1
2022-07-29T04:44:18.483Z,34.17
2022-07-29T04:46:23.862Z,34.33
2022-07-29T04:48:31.100Z,34.3
2022-07-29T04:50:35.588Z,34.14
2022-07-29T04:52:40.079Z,34.09
2022-07-29T04:54:44.671Z,34.1
2022-07-29T04:56:49.959Z,34.1
2022-07-29T04:58:54.502Z,34.07
2022-07-29T05:00:59.026Z,34.06
2022-07-29T05:03:04.106Z,34.14
2022-07-29T05:05:08.823Z,34.09
2022-07-29T05:07:13.397Z,34.12
2022-07-29T05:09:18.094Z,34.1
2022-07-29T05:11:31.368Z,33.99
2022-07-29T05:13:48.496Z,33.98
2022-07-29T05:15:53.898Z,33.94
2022-07-29T05:17:58.649Z,33.91
2022-07-29T05:20:03.271Z,33.89
2022-07-29T05:22:07.893Z,33.87
2022-07-29T05:24:12.752Z,33.76
2022-07-29T05:26:17.537Z,33.79
2022-07-29T05:28:22.092Z,33.71
2022-07-29T05:30:26.777Z,33.75
2022-07-29T05:32:31.611Z,33.73
2022-07-29T05:34:36.229Z,33.78
2022-07-29T05:36:40.954Z,33.71
2022-07-29T05:38:45.558Z,33.79
2022-07-29T05:40:50.192Z,33.73
2022-07-29T05:42:54.816Z,33.71
2022-07-29T05:44:59.436Z,33.79
2022-07-29T05:47:04.050Z,33.82
2022-07-29T05:49:08.870Z,33.91
2022-07-29T05:51:13.607Z,34.13
2022-07-29T05:53:22.631Z,34.37
2022-07-29T05:55:27.207Z,34.37
2022-07-29T05:57:31.853Z,34.35
2022-07-29T05:59:36.562Z,34.39
2022-07-29T06:01:41.584Z,34.4
2022-07-29T06:03:46.216Z,34.27
2022-07-29T06:05:50.865Z,34.13
2022-07-29T06:07:55.488Z,34.1
2022-07-29T06:10:00.233Z,33.97
2022-07-29T06:12:04.792Z,33.88
2022-07-29T06:14:09.517Z,33.85
2022-07-29T06:16:31.111Z,33.86
2022-07-29T06:18:35.782Z,33.7
2022-07-29T06:20:40.517Z,33.61
2022-07-29T06:22:45.001Z,33.56
2022-07-29T06:24:49.619Z,33.55
2022-07-29T06:26:54.150Z,33.5
2022-07-29T06:28:58.703Z,33.74
2022-07-29T06:31:03.567Z,33.74
2022-07-29T06:33:08.194Z,33.53
2022-07-29T06:35:50.998Z,33.97
2022-07-29T06:38:01.933Z,33.61
2022-07-29T06:40:06.567Z,33.93
2022-07-29T06:42:10.973Z,34.8
2022-07-29T06:44:18.286Z,34.98
2022-07-29T06:46:24.098Z,34.35
2022-07-29T06:48:28.637Z,34.38
2022-07-29T06:50:33.177Z,34.52
2022-07-29T06:52:37.652Z,34.07
2022-07-29T06:54:42.481Z,33.84
2022-07-29T06:56:46.995Z,33.73
2022-07-29T06:58:51.608Z,33.61
2022-07-29T07:00:56.515Z,33.66
2022-07-29T07:03:01.096Z,33.67
2022-07-29T07:05:05.647Z,33.67
2022-07-29T07:07:10.304Z,33.76
2022-07-29T07:09:15.040Z,33.96
2022-07-29T07:11:19.661Z,33.84
2022-07-29T07:13:24.333Z,33.74
2022-07-29T07:15:41.997Z,33.77
2022-07-29T07:17:46.719Z,33.8
2022-07-29T07:19:51.339Z,33.82
2022-07-29T07:21:57.776Z,33.83
2022-07-29T07:24:02.839Z,33.91
2022-07-29T07:26:07.565Z,34.09
2022-07-29T07:28:13.309Z,34.22
2022-07-29T07:30:17.938Z,33.99
2022-07-29T07:32:22.797Z,33.95
2022-07-29T07:34:31.745Z,33.95
2022-07-29T07:36:36.458Z,33.9
2022-07-29T07:38:41.126Z,34.28
2022-07-29T07:40:45.848Z,34.22
2022-07-29T07:42:50.780Z,34.09
2022-07-29T07:45:17.832Z,34.23
2022-07-29T07:47:23.318Z,34.06
2022-07-29T07:49:28.784Z,34.09
2022-07-29T07:51:33.422Z,34.02
2022-07-29T07:53:38.242Z,34.17
2022-07-29T07:56:13.488Z,34.17
2022-07-29T07:58:18.107Z,34.2
2022-07-29T08:00:25.797Z,34.3
2022-07-29T08:02:30.613Z,34.32
2022-07-29T08:04:35.210Z,34.29
2022-07-29T08:06:39.708Z,34.3
2022-07-29T08:08:44.810Z,34.35
2022-07-29T08:10:49.359Z,34.48
2022-07-29T08:12:54.038Z,34.49
2022-07-29T08:14:58.602Z,34.52
2022-07-29T08:17:03.625Z,34.57
2022-07-29T08:19:08.431Z,34.66
2022-07-29T08:21:16.812Z,34.76
2022-07-29T08:23:21.582Z,34.69
2022-07-29T08:25:26.894Z,34.75
2022-07-29T08:27:46.940Z,34.71
2022-07-29T08:29:51.584Z,34.75
2022-07-29T08:31:57.408Z,34.74
2022-07-29T08:34:02.156Z,34.79
2022-07-29T08:36:06.762Z,34.71
2022-07-29T08:38:11.392Z,34.71
2022-07-29T08:40:16.226Z,34.8
2022-07-29T08:42:20.952Z,34.71
2022-07-29T08:44:33.246Z,34.8
2022-07-29T08:46:37.853Z,34.81
2022-07-29T08:48:42.615Z,34.78
2022-07-29T08:50:50.181Z,34.85
2022-07-29T08:53:01.184Z,34.9
2022-07-29T08:55:05.770Z,34.9
2022-07-29T08:57:14.118Z,34.91
2022-07-29T08:59:23.719Z,35.03
2022-07-29T09:01:46.261Z,35.15
2022-07-29T09:03:51.902Z,35.08
2022-07-29T09:05:56.497Z,35.11
2022-07-29T09:08:01.141Z,35.24
2022-07-29T09:10:05.973Z,35.18
2022-07-29T09:12:10.590Z,35.22
2022-07-29T09:14:15.191Z,35.25
2022-07-29T09:16:54.700Z,35.25
2022-07-29T09:18:59.435Z,35.34
2022-07-29T09:21:04.079Z,35.31
2022-07-29T09:23:08.711Z,35.31
2022-07-29T09:25:13.544Z,35.31
2022-07-29T09:27:18.369Z,35.3
2022-07-29T09:29:24.006Z,35.25
2022-07-29T09:31:28.813Z,35.16
2022-07-29T09:33:33.419Z,35.27
2022-07-29T09:35:38.284Z,35.28
2022-07-29T09:37:42.894Z,35.29
2022-07-29T09:39:48.660Z,35.34
2022-07-29T09:41:53.266Z,35.36
2022-07-29T09:43:57.886Z,35.34
2022-07-29T09:46:02.456Z,35.35
2022-07-29T09:48:07.133Z,35.26
2022-07-29T09:50:11.795Z,35.29
2022-07-29T09:52:16.377Z,35.25
2022-07-29T09:54:20.989Z,35.24
2022-07-29T09:56:25.721Z,35.27
2022-07-29T09:58:30.517Z,35.38
2022-07-29T10:00:35.430Z,35.44
2022-07-29T10:02:40.093Z,35.41
2022-07-29T10:04:44.757Z,35.43
2022-07-29T10:06:49.465Z,35.52
2022-07-29T10:08:54.265Z,35.48
2022-07-29T10:10:58.955Z,35.47
2022-07-29T10:13:15.900Z,35.56
2022-07-29T10:15:20.822Z,35.65
2022-07-29T10:17:25.441Z,35.61
2022-07-29T10:19:30.062Z,35.74
2022-07-29T10:21:38.106Z,35.68
2022-07-29T10:23:49.423Z,35.75
2022-07-29T10:25:54.169Z,35.71
2022-07-29T10:27:58.887Z,35.67
2022-07-29T10:30:03.712Z,35.66
2022-07-29T10:32:08.441Z,35.59
2022-07-29T10:34:14.423Z,35.73
2022-07-29T10:36:22.033Z,35.64
2022-07-29T10:38:28.217Z,35.59
2022-07-29T10:40:36.854Z,35.65
2022-07-29T10:42:42.293Z,35.57
2022-07-29T10:44:47.013Z,35.6
2022-07-29T10:46:52.131Z,35.6
2022-07-29T10:48:59.122Z,35.57
2022-07-29T10:51:08.147Z,35.46
2022-07-29T10:53:16.433Z,35.53
2022-07-29T10:55:22.878Z,35.33
2022-07-29T10:57:58.820Z,35.34
2022-07-29T11:00:05.614Z,35.81
2022-07-29T11:02:44.957Z,35.83
2022-07-29T11:04:51.432Z,35.75
2022-07-29T11:06:59.883Z,35.65
2022-07-29T11:09:11.536Z,35.71
2022-07-29T11:11:22.101Z,35.62
2022-07-29T11:13:41.108Z,35.64
2022-07-29T11:15:47.039Z,35.61
2022-07-29T11:17:55.320Z,35.74
2022-07-29T11:20:05.151Z,35.79
2022-07-29T11:22:11.795Z,35.79
2022-07-29T11:24:31.709Z,36.06
2022-07-29T11:26:40.789Z,36.11
2022-07-29T11:28:45.865Z,36.13
2022-07-29T11:30:50.446Z,36.22
2022-07-29T11:32:55.688Z,36.17
2022-07-29T11:35:18.964Z,36.07
2022-07-29T11:37:32.841Z,35.97
2022-07-29T11:39:48.285Z,36.43
2022-07-29T11:41:59.492Z,36.31
2022-07-29T11:44:11.155Z,36.5
2022-07-29T11:46:16.079Z,36.46
2022-07-29T11:48:37.112Z,36.25
2022-07-29T11:50:49.219Z,36.31
2022-07-29T11:52:54.307Z,36.27
2022-07-29T11:55:11.618Z,36.31
2022-07-29T11:57:18.187Z,36.48
2022-07-29T11:59:23.112Z,36.77
2022-07-29T12:01:38.190Z,36.55
2022-07-29T12:03:46.117Z,36.72
2022-07-29T12:05:54.118Z,36.95
2022-07-29T12:08:02.085Z,37.12
2022-07-29T12:10:19.668Z,37.17
2022-07-29T12:12:34.512Z,37.2
2022-07-29T12:14:39.950Z,37.29
2022-07-29T12:16:46.341Z,37.33
2022-07-29T12:18:50.996Z,37.27
2022-07-29T12:20:55.619Z,37.26
2022-07-29T12:23:01.057Z,37.23
2022-07-29T12:25:35.120Z,37.25
2022-07-29T12:27:42.657Z,37.24
2022-07-29T12:29:51.147Z,37.21
2022-07-29T12:32:01.258Z,37.21
2022-07-29T12:34:06.308Z,37.22
2022-07-29T12:36:19.611Z,37.22
2022-07-29T12:38:24.275Z,37.23
2022-07-29T12:40:28.926Z,37.27
2022-07-29T12:42:33.749Z,37.27
2022-07-29T12:44:38.669Z,37.27
2022-07-29T12:46:43.934Z,37.34
2022-07-29T12:48:48.765Z,37.34
2022-07-29T12:50:53.471Z,37.36
2022-07-29T12:52:58.052Z,37.36
2022-07-29T12:55:02.685Z,37.36
2022-07-29T12:57:07.624Z,37.36
2022-07-29T12:59:25.257Z,37.33
2022-07-29T13:01:30.994Z,37.35
2022-07-29T13:03:38.336Z,37.38
2022-07-29T13:05:50.696Z,37.41
2022-07-29T13:08:00.165Z,37.38
2022-07-29T13:10:05.258Z,37.34
2022-07-29T13:12:10.082Z,37.36
2022-07-29T13:14:14.700Z,37.34
2022-07-29T13:16:19.537Z,37.33
2022-07-29T13:18:26.707Z,37.3
2022-07-29T13:20:31.322Z,37.34
2022-07-29T13:22:36.055Z,37.39
2022-07-29T13:24:40.660Z,37.41
2022-07-29T13:26:45.294Z,37.44
2022-07-29T13:28:50.115Z,37.55
2022-07-29T13:30:54.979Z,37.67
2022-07-29T13:32:59.776Z,37.56
2022-07-29T13:35:07.641Z,37.4
2022-07-29T13:37:12.137Z,37.35
2022-07-29T13:39:16.682Z,37.29
2022-07-29T13:43:25.114Z,37.24
2022-07-29T13:45:31.293Z,37.22
2022-07-29T13:47:36.223Z,37.16
2022-07-29T13:49:40.937Z,37.11
2022-07-29T13:51:45.657Z,37.08
2022-07-29T13:53:50.288Z,37.04
2022-07-29T13:55:55.307Z,37.02
2022-07-29T13:58:00.145Z,37.03
2022-07-29T14:00:04.734Z,37.03
2022-07-29T14:02:09.238Z,36.97
2022-07-29T14:04:14.604Z,36.95
2022-07-29T14:06:23.513Z,36.92
2022-07-29T14:08:28.256Z,36.88
2022-07-29T14:10:32.827Z,37.01
2022-07-29T14:12:37.505Z,36.93
2022-07-29T14:14:42.330Z,36.97
2022-07-29T14:16:53.720Z,37.1
2022-07-29T14:18:58.531Z,37.12
2022-07-29T14:21:03.356Z,37.03
2022-07-29T14:23:08.191Z,37.09
2022-07-29T14:25:17.717Z,37.04
2022-07-29T14:27:43.041Z,37.39
2022-07-29T14:29:47.849Z,37.25
2022-07-29T14:31:52.705Z,37.37
2022-07-29T14:34:03.965Z,37.03
2022-07-29T14:36:09.238Z,36.96
2022-07-29T14:38:13.917Z,36.87
2022-07-29T14:40:18.535Z,36.63
2022-07-29T14:42:23.261Z,36.59
2022-07-29T14:44:28.084Z,36.97
2022-07-29T14:46:33.270Z,37.77
2022-07-29T14:48:38.053Z,37.63
2022-07-29T14:50:42.481Z,37.5
2022-07-29T14:52:47.184Z,37.29
2022-07-29T14:54:53.788Z,36.93
2022-07-29T14:56:58.713Z,36.49
2022-07-29T14:59:03.329Z,36.43
2022-07-29T15:01:08.074Z,36.41
2022-07-29T15:03:24.873Z,36.54
2022-07-29T15:05:29.525Z,36.58
2022-07-29T15:07:34.036Z,36.54
2022-07-29T15:09:50.773Z,36.46
2022-07-29T15:11:55.810Z,36.57
2022-07-29T15:14:00.662Z,36.51
2022-07-29T15:16:07.633Z,37.13
2022-07-29T15:18:12.327Z,37.15
2022-07-29T15:20:16.894Z,37.13
2022-07-29T15:22:21.474Z,36.95
2022-07-29T15:24:26.095Z,37.14
2022-07-29T15:26:30.915Z,37.1
2022-07-29T15:28:35.640Z,36.91
2022-07-29T15:30:40.239Z,36.89
2022-07-29T15:32:44.914Z,36.8
2022-07-29T15:34:49.465Z,37.01
2022-07-29T15:36:55.792Z,37.08
2022-07-29T15:39:00.379Z,37.42
2022-07-29T15:41:05.014Z,37.54
2022-07-29T15:43:09.578Z,37.64
2022-07-29T15:45:14.349Z,37.8
2022-07-29T15:47:18.835Z,37.87
2022-07-29T15:49:25.033Z,37.93
2022-07-29T15:51:29.717Z,38.06
2022-07-29T15:53:37.200Z,38.09
2022-07-29T15:55:46.670Z,38.09
2022-07-29T15:57:51.395Z,38.16
2022-07-29T15:59:56.013Z,38.2
2022-07-29T16:02:00.692Z,38.2
2022-07-29T16:04:05.561Z,38.21
2022-07-29T16:06:10.133Z,38.33
2022-07-29T16:08:14.698Z,37.69
2022-07-29T16:10:19.323Z,37.8
2022-07-29T16:12:23.942Z,37.79
2022-07-29T16:14:30.736Z,37.86
2022-07-29T16:16:35.606Z,37.8
2022-07-29T16:18:40.368Z,37.81
2022-07-29T16:20:45.303Z,37.83
2022-07-29T16:22:49.916Z,37.8
2022-07-29T16:24:54.747Z,37.73
2022-07-29T16:27:00.857Z,37.74
2022-07-29T16:29:05.822Z,37.73
2022-07-29T16:31:10.490Z,37.8
2022-07-29T16:33:16.920Z,37.76
2022-07-29T16:35:21.316Z,37.7
2022-07-29T16:37:29.689Z,37.66
2022-07-29T16:39:34.362Z,37.63
2022-07-29T16:41:38.974Z,37.6
2022-07-29T16:43:43.703Z,37.63
2022-07-29T16:45:49.683Z,37.68
2022-07-29T16:48:01.499Z,37.62
2022-07-29T16:50:06.152Z,37.79
2022-07-29T16:52:10.791Z,38.02
2022-07-29T16:54:15.413Z,38.16
2022-07-29T16:56:20.140Z,38.23
2022-07-29T16:58:24.718Z,38.3
2022-07-29T17:00:29.441Z,38.53
2022-07-29T17:02:34.062Z,38.61
2022-07-29T17:04:38.560Z,38.82
2022-07-29T17:06:43.445Z,38.94
2022-07-29T17:08:48.070Z,39.07
2022-07-29T17:10:52.676Z,39.11
2022-07-29T17:12:57.311Z,39.25
2022-07-29T17:15:02.651Z,39.37
2022-07-29T17:17:20.757Z,39.25
2022-07-29T17:19:43.636Z,39.01
2022-07-29T17:21:51.395Z,39.13
2022-07-29T17:23:56.008Z,39.27
2022-07-29T17:26:00.565Z,39.22
2022-07-29T17:28:05.299Z,39.35
2022-07-29T17:30:09.892Z,39.38
2022-07-29T17:32:14.742Z,39.47
2022-07-29T17:34:20.010Z,39.44
2022-07-29T17:36:24.814Z,39.66
2022-07-29T17:38:29.366Z,39.9
2022-07-29T17:40:34.020Z,40.13
2022-07-29T17:42:38.667Z,40.32
2022-07-29T17:44:43.611Z,40.32
2022-07-29T17:46:48.457Z,40.54
2022-07-29T17:48:53.262Z,40.58
2022-07-29T17:50:58.026Z,40.65
2022-07-29T17:53:02.639Z,40.59
2022-07-29T17:55:14.266Z,40.66
2022-07-29T17:57:19.002Z,40.79
2022-07-29T17:59:23.607Z,40.83
2022-07-29T18:01:28.248Z,40.99
2022-07-29T18:03:32.874Z,41.02
2022-07-29T18:05:37.698Z,41.03
2022-07-29T18:07:42.327Z,41.08
2022-07-29T18:09:47.122Z,40.97
2022-07-29T18:11:51.651Z,40.94
2022-07-29T18:13:56.282Z,41.12
2022-07-29T18:16:02.995Z,41.02
2022-07-29T18:18:07.662Z,40.97
2022-07-29T18:20:12.399Z,40.96
2022-07-29T18:22:16.998Z,41.11
2022-07-29T18:24:21.515Z,41.14
2022-07-29T18:26:32.611Z,41.47
2022-07-29T18:28:42.133Z,41.5
2022-07-29T18:30:47.075Z,41.71
2022-07-29T18:33:23.030Z,41.72
2022-07-29T18:35:27.755Z,41.77
2022-07-29T18:38:04.632Z,41.87
2022-07-29T18:40:09.137Z,41.81
2022-07-29T18:42:13.872Z,41.78
2022-07-29T18:44:18.486Z,41.46
2022-07-29T18:46:24.022Z,41.54
2022-07-29T18:48:30.056Z,41.6
2022-07-29T18:50:34.604Z,41.59
2022-07-29T18:52:39.051Z,41.55
2022-07-29T18:54:43.496Z,41.47
2022-07-29T18:56:47.971Z,41.43
2022-07-29T18:58:52.382Z,41.43
2022-07-29T19:00:56.819Z,41.41
2022-07-29T19:03:01.721Z,41.32
2022-07-29T19:05:06.308Z,41.22
2022-07-29T19:07:10.841Z,41.25
2022-07-29T19:09:15.428Z,41.19
2022-07-29T19:11:20.091Z,41.18
2022-07-29T19:13:24.695Z,41.3
2022-07-29T19:15:29.404Z,41.31
2022-07-29T19:17:34.170Z,41.36
2022-07-29T19:19:38.878Z,41.28
2022-07-29T19:21:43.398Z,41.17
2022-07-29T19:24:15.709Z,41.1
2022-07-29T19:26:22.840Z,41.15
2022-07-29T19:28:30.950Z,41.14
2022-07-29T19:30:35.577Z,41.21
2022-07-29T19:32:40.145Z,41.2
2022-07-29T19:34:51.918Z,41.46
2022-07-29T19:36:57.452Z,41.6
2022-07-29T19:39:02.224Z,41.92
2022-07-29T19:41:06.865Z,41.87
2022-07-29T19:43:54.398Z,41.69
2022-07-29T19:45:59.275Z,41.76
2022-07-29T19:48:04.046Z,41.64
2022-07-29T19:50:08.739Z,41.72
2022-07-29T19:52:13.488Z,41.68
2022-07-29T19:54:18.259Z,41.74
2022-07-29T19:56:25.112Z,41.63
2022-07-29T19:58:30.354Z,41.69
2022-07-29T20:00:35.350Z,41.71
2022-07-29T20:02:40.820Z,41.85
2022-07-29T20:04:45.496Z,42.01
2022-07-29T20:06:50.131Z,41.96
2022-07-29T20:09:00.601Z,42.2
2022-07-29T20:11:05.314Z,42.35
2022-07-29T20:13:09.932Z,42.29
2022-07-29T20:15:18.515Z,42.22
2022-07-29T20:17:23.066Z,42.13
2022-07-29T20:19:27.890Z,42.16
2022-07-29T20:21:32.407Z,42.23
2022-07-29T20:23:37.135Z,42.25
2022-07-29T20:25:41.751Z,42.33
2022-07-29T20:27:46.479Z,42.7
2022-07-29T20:29:51.070Z,42.74
2022-07-29T20:31:58.801Z,43.04
2022-07-29T20:34:03.514Z,43.3
2022-07-29T20:36:08.136Z,43.19
2022-07-29T20:38:19.511Z,43.2
2022-07-29T20:40:24.135Z,43.14
2022-07-29T20:42:28.959Z,43.23
2022-07-29T20:44:33.742Z,43.56
2022-07-29T20:46:38.755Z,43.23
2022-07-29T20:48:43.663Z,42.98
2022-07-29T20:50:48.345Z,42.94
2022-07-29T20:52:53.112Z,42.76
2022-07-29T20:54:57.687Z,42.6
2022-07-29T20:57:03.498Z,42.57
2022-07-29T20:59:08.139Z,42.54
2022-07-29T21:01:12.978Z,42.52
2022-07-29T21:03:17.748Z,42.52
2022-07-29T21:05:22.450Z,42.5
2022-07-29T21:07:26.969Z,42.6
2022-07-29T21:09:31.546Z,42.59
2022-07-29T21:11:47.064Z,42.57
2022-07-29T21:13:51.788Z,42.51
2022-07-29T21:15:56.581Z,42.53
2022-07-29T21:18:01.166Z,42.61
2022-07-29T21:20:05.858Z,42.62
2022-07-29T21:22:10.476Z,42.52
2022-07-29T21:24:15.102Z,42.47
2022-07-29T21:26:19.714Z,42.47
2022-07-29T21:28:24.271Z,42.51
2022-07-29T21:30:28.837Z,42.56
2022-07-29T21:32:33.567Z,42.62
2022-07-29T21:34:38.142Z,42.72
2022-07-29T21:36:50.731Z,42.77
2022-07-29T21:38:55.402Z,42.78
2022-07-29T21:41:00.117Z,42.85
2022-07-29T21:43:04.913Z,43.01
2022-07-29T21:45:12.870Z,43.03
2022-07-29T21:47:17.691Z,42.97
2022-07-29T21:49:22.757Z,43.05
2022-07-29T21:51:27.552Z,43.04
2022-07-29T21:53:32.910Z,43.2
2022-07-29T21:55:37.958Z,43.21
2022-07-29T21:57:42.535Z,43.16
2022-07-29T21:59:47.127Z,43.36
2022-07-29T22:01:51.873Z,43.44
2022-07-29T22:03:57.179Z,43.47
2022-07-29T22:06:01.837Z,43.51
2022-07-29T22:08:06.455Z,43.48
2022-07-29T22:10:12.491Z,43.51
2022-07-29T22:12:17.167Z,43.43
2022-07-29T22:14:21.718Z,43.39
2022-07-29T22:16:26.637Z,43.28
2022-07-29T22:18:31.272Z,43.37
2022-07-29T22:20:36.942Z,43.41
2022-07-29T22:22:41.657Z,43.34
2022-07-29T22:24:46.287Z,43.3
2022-07-29T22:26:50.768Z,43.21
2022-07-29T22:28:55.422Z,43.14
2022-07-29T22:31:00.203Z,43.05
2022-07-29T22:33:04.977Z,42.89
2022-07-29T22:35:09.578Z,42.77
2022-07-29T22:37:14.192Z,42.67
2022-07-29T22:39:18.736Z,42.56
2022-07-29T22:41:23.253Z,42.57
2022-07-29T22:43:27.867Z,42.48
2022-07-29T22:45:32.390Z,42.47
2022-07-29T22:47:52.428Z,42.44
2022-07-29T22:50:04.134Z,42.17
2022-07-29T22:52:08.684Z,42.14
2022-07-29T22:54:13.304Z,42.09
2022-07-29T22:56:17.885Z,41.94
2022-07-29T22:58:22.403Z,41.86
2022-07-29T23:00:27.056Z,41.57
2022-07-29T23:02:31.892Z,41.43
2022-07-29T23:04:36.565Z,41.26
2022-07-29T23:06:41.428Z,41.19
2022-07-29T23:08:46.131Z,41.11
2022-07-29T23:10:50.673Z,41.1
2022-07-29T23:12:55.249Z,41.08
2022-07-29T23:15:00.712Z,40.98
2022-07-29T23:17:06.468Z,40.99
2022-07-29T23:19:11.042Z,40.84
2022-07-29T23:21:15.648Z,40.8
2022-07-29T23:23:21.365Z,40.84
2022-07-29T23:25:25.986Z,40.71
2022-07-29T23:27:30.650Z,40.66
2022-07-29T23:29:38.991Z,40.5
2022-07-29T23:31:50.395Z,40.33
2022-07-29T23:33:55.006Z,40.26
2022-07-29T23:35:59.607Z,40.1
2022-07-29T23:38:04.219Z,40.18
2022-07-29T23:40:15.939Z,40.1
2022-07-29T23:42:20.768Z,40.05
2022-07-29T23:44:25.342Z,39.99
2022-07-29T23:46:30.033Z,40.01
2022-07-29T23:48:34.587Z,39.88
2022-07-29T23:50:39.185Z,39.94
2022-07-29T23:52:43.933Z,39.89
2022-07-29T23:54:49.414Z,39.85
2022-07-29T23:56:54.031Z,39.89
2022-07-29T23:58:58.649Z,39.88
